createdAt,value
2018-09-12T00:00:50.074Z,97824.00
2018-09-12T00:03:19.884Z,97823.00
2018-09-12T00:05:49.584Z,97820.00
2018-09-12T00:08:19.198Z,97819.00
2018-09-12T00:10:48.869Z,97818.00
2018-09-12T00:13:18.556Z,97820.00
2018-09-12T00:15:48.258Z,97819.00
2018-09-12T00:18:22.895Z,97819.00
2018-09-12T00:20:52.982Z,97819.00
2018-09-12T00:23:22.762Z,97819.00
2018-09-12T00:25:52.427Z,97812.00
2018-09-12T00:28:22.135Z,97804.00
2018-09-12T00:30:51.774Z,97801.00
2018-09-12T00:33:21.486Z,97802.00
2018-09-12T00:35:51.171Z,97803.00
2018-09-12T00:38:21.092Z,97798.00
2018-09-12T00:40:51.067Z,97795.00
2018-09-12T00:43:20.746Z,97791.00
2018-09-12T00:45:50.399Z,97791.00
2018-09-12T00:48:20.048Z,97783.00
2018-09-12T00:50:49.675Z,97779.00
2018-09-12T00:53:19.288Z,97783.00
2018-09-12T00:55:49.075Z,97790.00
2018-09-12T00:58:18.778Z,97784.00
2018-09-12T01:00:48.393Z,97780.00
2018-09-12T01:03:18.083Z,97777.00
2018-09-12T01:05:47.759Z,97783.00
2018-09-12T01:08:17.417Z,97775.00
2018-09-12T01:10:47.107Z,97777.00
2018-09-12T01:13:17.227Z,97776.00
2018-09-12T01:15:46.930Z,97774.00
2018-09-12T01:18:18.485Z,97775.00
2018-09-12T01:20:49.806Z,97770.00
2018-09-12T01:23:20.065Z,97765.00
2018-09-12T01:25:49.695Z,97763.00
2018-09-12T01:28:19.434Z,97762.00
2018-09-12T01:30:49.157Z,97765.00
2018-09-12T01:33:18.835Z,97764.00
2018-09-12T01:35:48.495Z,97760.00
2018-09-12T01:38:18.170Z,97759.00
2018-09-12T01:40:47.850Z,97758.00
2018-09-12T01:43:17.486Z,97753.00
2018-09-12T01:45:47.112Z,97757.00
2018-09-12T01:48:16.852Z,97752.00
2018-09-12T01:50:46.499Z,97747.00
2018-09-12T01:53:16.166Z,97746.00
2018-09-12T01:55:45.775Z,97740.00
2018-09-12T01:58:15.483Z,97744.00
2018-09-12T02:00:45.179Z,97740.00
2018-09-12T02:03:14.860Z,97743.00
2018-09-12T02:05:44.502Z,97744.00
2018-09-12T02:08:14.103Z,97740.00
2018-09-12T02:10:43.785Z,97734.00
2018-09-12T02:13:13.400Z,97735.00
2018-09-12T02:15:43.090Z,97728.00
2018-09-12T02:18:12.706Z,97730.00
2018-09-12T02:20:42.339Z,97737.00
2018-09-12T02:23:11.970Z,97739.00
2018-09-12T02:25:41.723Z,97731.00
2018-09-12T02:28:11.461Z,97732.00
2018-09-12T02:30:41.295Z,97730.00
2018-09-12T02:33:11.066Z,97731.00
2018-09-12T02:35:45.942Z,97733.00
2018-09-12T02:38:15.671Z,97730.00
2018-09-12T02:40:45.412Z,97733.00
2018-09-12T02:43:15.075Z,97744.00
2018-09-12T02:45:44.811Z,97734.00
2018-09-12T02:48:14.378Z,97742.00
2018-09-12T02:50:44.067Z,97733.00
2018-09-12T02:53:13.739Z,97723.00
2018-09-12T02:55:43.461Z,97728.00
2018-09-12T02:58:13.160Z,97722.00
2018-09-12T03:00:42.870Z,97728.00
2018-09-12T03:03:12.595Z,97727.00
2018-09-12T03:05:42.430Z,97719.00
2018-09-12T03:11:13.562Z,97722.00
2018-09-12T03:13:43.242Z,97724.00
2018-09-12T03:16:13.010Z,97722.00
2018-09-12T03:18:42.764Z,97721.00
2018-09-12T03:21:12.544Z,97717.00
2018-09-12T03:23:42.147Z,97713.00
2018-09-12T03:26:11.952Z,97710.00
2018-09-12T03:28:41.571Z,97714.00
2018-09-12T03:31:11.187Z,97709.00
2018-09-12T03:33:40.900Z,97703.00
2018-09-12T03:36:10.550Z,97703.00
2018-09-12T03:38:40.274Z,97699.00
2018-09-12T03:41:09.966Z,97699.00
2018-09-12T03:43:39.700Z,97697.00
2018-09-12T03:46:09.313Z,97696.00
2018-09-12T03:48:38.986Z,97699.00
2018-09-12T03:51:08.655Z,97700.00
2018-09-12T03:53:38.322Z,97695.00
2018-09-12T03:56:08.007Z,97701.00
2018-09-12T03:58:37.670Z,97698.00
2018-09-12T04:01:07.531Z,97699.00
2018-09-12T04:03:37.154Z,97702.00
2018-09-12T04:06:07.059Z,97701.00
2018-09-12T04:08:36.746Z,97706.00
2018-09-12T04:11:06.499Z,97709.00
2018-09-12T04:13:36.121Z,97705.00
2018-09-12T04:16:05.850Z,97711.00
2018-09-12T04:18:35.563Z,97713.00
2018-09-12T04:21:05.226Z,97715.00
2018-09-12T04:23:34.977Z,97710.00
2018-09-12T04:26:04.667Z,97707.00
2018-09-12T04:28:34.399Z,97708.00
2018-09-12T04:31:04.087Z,97706.00
2018-09-12T04:33:33.750Z,97705.00
2018-09-12T04:36:03.467Z,97710.00
2018-09-12T04:38:33.134Z,97706.00
2018-09-12T04:41:02.863Z,97709.00
2018-09-12T04:43:32.598Z,97711.00
2018-09-12T04:46:02.329Z,97708.00
2018-09-12T04:48:32.038Z,97704.00
2018-09-12T04:51:01.732Z,97702.00
2018-09-12T04:53:31.382Z,97705.00
2018-09-12T04:56:01.092Z,97704.00
2018-09-12T04:58:30.724Z,97706.00
2018-09-12T05:01:00.366Z,97698.00
2018-09-12T05:03:29.983Z,97702.00
2018-09-12T05:05:59.603Z,97704.00
2018-09-12T05:08:29.355Z,97715.00
2018-09-12T05:10:59.011Z,97725.00
2018-09-12T05:13:28.622Z,97723.00
2018-09-12T05:15:58.498Z,97728.00
2018-09-12T05:18:28.187Z,97732.00
2018-09-12T05:21:01.509Z,97728.00
2018-09-12T05:23:31.151Z,97726.00
2018-09-12T05:26:01.149Z,97717.00
2018-09-12T05:28:30.963Z,97719.00
2018-09-12T05:31:00.978Z,97714.00
2018-09-12T05:33:30.751Z,97713.00
2018-09-12T05:36:00.470Z,97723.00
2018-09-12T05:38:30.190Z,97727.00
2018-09-12T05:40:59.902Z,97721.00
2018-09-12T05:43:29.543Z,97728.00
2018-09-12T05:46:00.446Z,97725.00
2018-09-12T05:48:30.111Z,97730.00
2018-09-12T05:50:59.714Z,97728.00
2018-09-12T05:53:29.347Z,97733.00
2018-09-12T05:55:59.018Z,97737.00
2018-09-12T05:58:28.738Z,97740.00
2018-09-12T06:00:58.390Z,97740.00
2018-09-12T06:03:28.033Z,97737.00
2018-09-12T06:05:57.722Z,97731.00
2018-09-12T06:08:27.434Z,97730.00
2018-09-12T06:10:57.127Z,97730.00
2018-09-12T06:13:26.871Z,97725.00
2018-09-12T06:15:56.595Z,97728.00
2018-09-12T06:18:26.296Z,97730.00
2018-09-12T06:20:55.970Z,97723.00
2018-09-12T06:23:25.649Z,97734.00
2018-09-12T06:25:55.326Z,97734.00
2018-09-12T06:28:25.004Z,97729.00
2018-09-12T06:30:54.752Z,97731.00
2018-09-12T06:33:24.636Z,97737.00
2018-09-12T06:35:55.382Z,97725.00
2018-09-12T06:38:44.222Z,97735.00
2018-09-12T06:41:13.880Z,97722.00
2018-09-12T06:43:43.526Z,97729.00
2018-09-12T06:46:13.235Z,97723.00
2018-09-12T06:48:43.070Z,97728.00
2018-09-12T06:51:12.702Z,97723.00
2018-09-12T06:53:42.476Z,97716.00
2018-09-12T06:56:12.426Z,97707.00
2018-09-12T06:58:41.998Z,97699.00
2018-09-12T07:01:11.792Z,97701.00
2018-09-12T07:03:41.366Z,97711.00
2018-09-12T07:06:10.982Z,97708.00
2018-09-12T07:08:40.762Z,97712.00
2018-09-12T07:11:10.438Z,97707.00
2018-09-12T07:13:40.123Z,97710.00
2018-09-12T07:16:09.824Z,97709.00
2018-09-12T07:18:39.483Z,97709.00
2018-09-12T07:21:09.129Z,97711.00
2018-09-12T07:23:38.866Z,97713.00
2018-09-12T07:26:08.908Z,97709.00
2018-09-12T07:28:38.702Z,97705.00
2018-09-12T07:31:08.387Z,97712.00
2018-09-12T07:33:38.134Z,97712.00
2018-09-12T07:36:07.885Z,97716.00
2018-09-12T07:38:37.603Z,97715.00
2018-09-12T07:41:11.550Z,97719.00
2018-09-12T07:43:41.484Z,97719.00
2018-09-12T07:46:11.202Z,97718.00
2018-09-12T07:48:40.987Z,97720.00
2018-09-12T07:51:10.590Z,97720.00
2018-09-12T07:53:40.283Z,97721.00
2018-09-12T07:56:10.306Z,97719.00
2018-09-12T07:58:39.842Z,97724.00
2018-09-12T08:01:09.592Z,97724.00
2018-09-12T08:03:39.234Z,97725.00
2018-09-12T08:06:09.036Z,97727.00
2018-09-12T08:08:38.745Z,97725.00
2018-09-12T08:11:08.426Z,97728.00
2018-09-12T08:13:38.055Z,97730.00
2018-09-12T08:16:08.046Z,97725.00
2018-09-12T08:18:38.519Z,97731.00
2018-09-12T08:21:08.585Z,97728.00
2018-09-12T08:23:38.450Z,97726.00
2018-09-12T08:26:08.109Z,97721.00
2018-09-12T08:28:37.785Z,97717.00
2018-09-12T08:31:07.588Z,97724.00
2018-09-12T08:33:37.268Z,97724.00
2018-09-12T08:36:07.019Z,97722.00
2018-09-12T08:38:36.738Z,97723.00
2018-09-12T08:41:06.480Z,97720.00
2018-09-12T08:43:36.094Z,97719.00
2018-09-12T08:46:05.786Z,97720.00
2018-09-12T08:48:35.547Z,97719.00
2018-09-12T08:51:05.234Z,97718.00
2018-09-12T08:53:34.950Z,97724.00
2018-09-12T08:56:04.676Z,97725.00
2018-09-12T08:58:34.311Z,97721.00
2018-09-12T09:01:04.088Z,97726.00
2018-09-12T09:03:33.812Z,97721.00
2018-09-12T09:06:03.535Z,97725.00
2018-09-12T09:08:33.311Z,97731.00
2018-09-12T09:11:03.010Z,97718.00
2018-09-12T09:13:32.702Z,97727.00
2018-09-12T09:16:02.434Z,97724.00
2018-09-12T09:18:32.118Z,97720.00
2018-09-12T09:21:01.830Z,97717.00
2018-09-12T09:23:31.495Z,97721.00
2018-09-12T09:26:01.155Z,97715.00
2018-09-12T09:28:30.802Z,97720.00
2018-09-12T09:31:00.475Z,97720.00
2018-09-12T09:33:30.195Z,97716.00
2018-09-12T09:35:59.871Z,97720.00
2018-09-12T09:38:29.630Z,97725.00
2018-09-12T09:40:59.323Z,97712.00
2018-09-12T09:43:29.048Z,97711.00
2018-09-12T09:45:58.653Z,97709.00
2018-09-12T09:48:28.498Z,97704.00
2018-09-12T09:50:58.176Z,97699.00
2018-09-12T09:53:27.840Z,97705.00
2018-09-12T09:55:59.671Z,97708.00
2018-09-12T09:58:29.310Z,97699.00
2018-09-12T10:01:04.137Z,97696.00
2018-09-12T10:03:38.944Z,97689.00
2018-09-12T10:06:13.774Z,97691.00
2018-09-12T10:08:48.649Z,97691.00
2018-09-12T10:11:18.446Z,97685.00
2018-09-12T10:13:48.112Z,97688.00
2018-09-12T10:16:17.996Z,97687.00
2018-09-12T10:18:47.735Z,97690.00
2018-09-12T10:21:17.650Z,97689.00
2018-09-12T10:23:47.361Z,97682.00
2018-09-12T10:26:17.168Z,97680.00
2018-09-12T10:28:46.806Z,97675.00
2018-09-12T10:31:16.470Z,97681.00
2018-09-12T10:33:46.139Z,97678.00
2018-09-12T10:36:15.802Z,97669.00
2018-09-12T10:38:45.509Z,97663.00
2018-09-12T10:41:15.254Z,97660.00
2018-09-12T10:43:44.910Z,97658.00
2018-09-12T10:46:14.589Z,97664.00
2018-09-12T10:48:44.367Z,97660.00
2018-09-12T10:51:14.115Z,97654.00
2018-09-12T10:53:43.795Z,97658.00
2018-09-12T10:56:13.493Z,97662.00
2018-09-12T10:58:43.118Z,97660.00
2018-09-12T11:01:12.760Z,97655.00
2018-09-12T11:03:42.518Z,97658.00
2018-09-12T11:06:12.282Z,97653.00
2018-09-12T11:08:41.934Z,97642.00
2018-09-12T11:11:11.735Z,97639.00
2018-09-12T11:13:41.455Z,97631.00
2018-09-12T11:16:16.969Z,97629.00
2018-09-12T11:18:46.627Z,97627.00
2018-09-12T11:21:16.306Z,97618.00
2018-09-12T11:23:45.976Z,97615.00
2018-09-12T11:26:22.997Z,97611.00
2018-09-12T11:28:52.982Z,97605.00
2018-09-12T11:31:22.681Z,97603.00
2018-09-12T11:33:52.326Z,97605.00
2018-09-12T11:39:40.525Z,97606.00
2018-09-12T11:42:10.256Z,97608.00
2018-09-12T11:44:39.875Z,97604.00
2018-09-12T11:47:09.569Z,97599.00
2018-09-12T11:49:39.234Z,97599.00
2018-09-12T11:52:08.859Z,97594.00
2018-09-12T11:54:38.535Z,97592.00
2018-09-12T11:57:08.478Z,97591.00
2018-09-12T11:59:38.078Z,97590.00
2018-09-12T12:02:08.065Z,97584.00
2018-09-12T12:04:41.490Z,97581.00
2018-09-12T12:07:23.168Z,97576.00
2018-09-12T12:09:53.763Z,97574.00
2018-09-12T12:12:23.366Z,97564.00
2018-09-12T12:14:58.680Z,97560.00
2018-09-12T12:17:38.795Z,97559.00
2018-09-12T12:20:10.519Z,97559.00
2018-09-12T12:22:40.150Z,97560.00
2018-09-12T12:25:09.899Z,97546.00
2018-09-12T12:27:39.796Z,97544.00
2018-09-12T12:30:09.711Z,97545.00
2018-09-12T12:32:39.372Z,97537.00
2018-09-12T12:35:09.166Z,97532.00
2018-09-12T12:37:38.951Z,97530.00
2018-09-12T12:40:08.619Z,97526.00
2018-09-12T12:42:38.361Z,97519.00
2018-09-12T12:45:08.049Z,97509.00
2018-09-12T12:47:37.670Z,97512.00
2018-09-12T12:50:23.778Z,97510.00
2018-09-12T12:52:53.539Z,97501.00
2018-09-12T12:55:23.294Z,97501.00
2018-09-12T12:57:54.718Z,97494.00
2018-09-12T13:00:25.192Z,97491.00
2018-09-12T13:02:54.878Z,97487.00
2018-09-12T13:05:24.560Z,97481.00
2018-09-12T13:07:54.270Z,97477.00
2018-09-12T13:10:24.049Z,97468.00
2018-09-12T13:12:55.391Z,97469.00
2018-09-12T13:15:25.377Z,97468.00
2018-09-12T13:17:55.378Z,97458.00
2018-09-12T13:20:25.168Z,97455.00
2018-09-12T13:22:55.106Z,97453.00
2018-09-12T13:25:27.066Z,97446.00
2018-09-12T13:27:57.001Z,97440.00
2018-09-12T13:30:26.657Z,97440.00
2018-09-12T13:32:56.675Z,97436.00
2018-09-12T13:35:26.679Z,97435.00
2018-09-12T13:37:56.422Z,97432.00
2018-09-12T13:40:26.826Z,97426.00
2018-09-12T13:42:56.631Z,97419.00
2018-09-12T13:45:26.423Z,97421.00
2018-09-12T13:47:56.434Z,97411.00
2018-09-12T13:50:26.302Z,97411.00
2018-09-12T13:52:56.091Z,97407.00
2018-09-12T13:55:26.130Z,97410.00
2018-09-12T13:57:55.961Z,97407.00
2018-09-12T14:00:32.682Z,97403.00
2018-09-12T14:03:03.750Z,97402.00
2018-09-12T14:05:33.731Z,97398.00
2018-09-12T14:08:03.580Z,97401.00
2018-09-12T14:10:46.430Z,97390.00
2018-09-12T14:13:16.142Z,97392.00
2018-09-12T14:15:45.813Z,97390.00
2018-09-12T14:18:31.634Z,97383.00
2018-09-12T14:21:01.278Z,97383.00
2018-09-12T14:23:31.004Z,97382.00
2018-09-12T14:26:00.643Z,97380.00
2018-09-12T14:28:30.797Z,97377.00
2018-09-12T14:31:04.003Z,97371.00
2018-09-12T14:33:33.644Z,97369.00
2018-09-12T14:36:03.425Z,97368.00
2018-09-12T14:38:33.796Z,97367.00
2018-09-12T14:41:03.498Z,97360.00
2018-09-12T14:43:33.390Z,97356.00
2018-09-12T14:46:03.374Z,97352.00
2018-09-12T14:48:33.304Z,97356.00
2018-09-12T14:51:03.200Z,97347.00
2018-09-12T14:53:35.057Z,97345.00
2018-09-12T14:56:05.231Z,97349.00
2018-09-12T14:58:35.275Z,97340.00
2018-09-12T15:01:05.198Z,97339.00
2018-09-12T15:03:34.975Z,97335.00
2018-09-12T15:06:04.704Z,97328.00
2018-09-12T15:08:34.518Z,97326.00
2018-09-12T15:14:12.945Z,97321.00
2018-09-12T15:16:43.153Z,97320.00
2018-09-12T15:19:13.748Z,97314.00
2018-09-12T15:21:43.494Z,97316.00
2018-09-12T15:24:13.241Z,97313.00
2018-09-12T15:26:42.875Z,97313.00
2018-09-12T15:29:12.653Z,97308.00
2018-09-12T15:31:42.365Z,97305.00
2018-09-12T15:34:12.044Z,97307.00
2018-09-12T15:36:42.847Z,97298.00
2018-09-12T15:39:13.052Z,97297.00
2018-09-12T15:41:42.947Z,97295.00
2018-09-12T15:44:12.618Z,97288.00
2018-09-12T15:46:42.275Z,97285.00
2018-09-12T15:49:11.909Z,97280.00
2018-09-12T15:51:41.670Z,97288.00
2018-09-12T15:54:11.321Z,97283.00
2018-09-12T15:56:41.031Z,97275.00
2018-09-12T15:59:10.787Z,97276.00
2018-09-12T16:05:03.392Z,97271.00
2018-09-12T16:07:33.091Z,97270.00
2018-09-12T16:10:02.746Z,97266.00
2018-09-12T16:12:32.439Z,97263.00
2018-09-12T16:15:02.292Z,97261.00
2018-09-12T16:17:31.982Z,97251.00
2018-09-12T16:20:01.643Z,97251.00
2018-09-12T16:22:31.343Z,97248.00
2018-09-12T16:25:03.070Z,97247.00
2018-09-12T16:27:32.790Z,97244.00
2018-09-12T16:30:02.414Z,97246.00
2018-09-12T16:32:32.109Z,97245.00
2018-09-12T16:35:01.746Z,97239.00
2018-09-12T16:37:31.566Z,97239.00
2018-09-12T16:40:01.546Z,97233.00
2018-09-12T16:42:31.266Z,97233.00
2018-09-12T16:45:02.148Z,97236.00
2018-09-12T16:47:31.810Z,97226.00
2018-09-12T16:50:01.777Z,97231.00
2018-09-12T16:52:31.494Z,97230.00
2018-09-12T16:55:01.759Z,97229.00
2018-09-12T16:57:45.281Z,97227.00
2018-09-12T17:00:15.162Z,97219.00
2018-09-12T17:02:44.925Z,97226.00
2018-09-12T17:05:14.702Z,97233.00
2018-09-12T17:07:44.403Z,97227.00
2018-09-12T17:10:14.092Z,97228.00
2018-09-12T17:12:43.766Z,97222.00
2018-09-12T17:15:13.534Z,97234.00
2018-09-12T17:17:43.529Z,97234.00
2018-09-12T17:20:13.209Z,97242.00
2018-09-12T17:22:42.868Z,97240.00
2018-09-12T17:25:12.815Z,97238.00
2018-09-12T17:27:42.806Z,97237.00
2018-09-12T17:30:13.560Z,97240.00
2018-09-12T17:32:43.270Z,97246.00
2018-09-12T17:35:13.458Z,97240.00
2018-09-12T17:37:43.293Z,97241.00
2018-09-12T17:40:12.982Z,97243.00
2018-09-12T17:42:42.671Z,97243.00
2018-09-12T17:45:12.601Z,97242.00
2018-09-12T17:47:42.322Z,97245.00
2018-09-12T17:50:12.105Z,97244.00
2018-09-12T17:52:41.763Z,97245.00
2018-09-12T17:55:11.482Z,97245.00
2018-09-12T17:57:41.132Z,97242.00
2018-09-12T18:00:10.911Z,97239.00
2018-09-12T18:02:40.590Z,97243.00
2018-09-12T18:05:10.445Z,97248.00
2018-09-12T18:07:40.251Z,97250.00
2018-09-12T18:10:16.147Z,97249.00
2018-09-12T18:12:45.824Z,97255.00
2018-09-12T18:15:15.506Z,97254.00
2018-09-12T18:17:45.195Z,97253.00
2018-09-12T18:20:15.007Z,97251.00
2018-09-12T18:22:44.646Z,97256.00
2018-09-12T18:25:43.374Z,97253.00
2018-09-12T18:28:13.043Z,97252.00
2018-09-12T18:30:43.478Z,97259.00
2018-09-12T18:33:13.166Z,97269.00
2018-09-12T18:35:42.874Z,97267.00
2018-09-12T18:38:12.684Z,97266.00
2018-09-12T18:40:42.341Z,97269.00
2018-09-12T18:43:12.135Z,97270.00
2018-09-12T18:45:41.735Z,97271.00
2018-09-12T18:48:11.411Z,97267.00
2018-09-12T18:50:41.131Z,97262.00
2018-09-12T18:53:10.780Z,97263.00
2018-09-12T18:55:40.571Z,97263.00
2018-09-12T18:58:10.305Z,97261.00
2018-09-12T19:00:39.959Z,97258.00
2018-09-12T19:03:09.619Z,97258.00
2018-09-12T19:05:39.327Z,97260.00
2018-09-12T19:08:09.091Z,97265.00
2018-09-12T19:10:42.830Z,97265.00
2018-09-12T19:13:12.535Z,97260.00
2018-09-12T19:15:52.587Z,97254.00
2018-09-12T19:18:22.312Z,97261.00
2018-09-12T19:20:52.094Z,97255.00
2018-09-12T19:23:21.827Z,97251.00
2018-09-12T19:25:51.574Z,97247.00
2018-09-12T19:28:21.251Z,97242.00
2018-09-12T19:30:51.049Z,97240.00
2018-09-12T19:33:20.706Z,97242.00
2018-09-12T19:35:50.550Z,97252.00
2018-09-12T19:38:25.330Z,97254.00
2018-09-12T19:40:55.060Z,97256.00
2018-09-12T19:43:24.853Z,97262.00
2018-09-12T19:45:54.725Z,97259.00
2018-09-12T19:48:24.540Z,97261.00
2018-09-12T19:51:15.134Z,97257.00
2018-09-12T19:53:45.780Z,97255.00
2018-09-12T19:56:23.103Z,97254.00
2018-09-12T19:58:53.279Z,97254.00
2018-09-12T20:01:23.314Z,97249.00
2018-09-12T20:03:53.557Z,97248.00
2018-09-12T20:06:23.310Z,97254.00
2018-09-12T20:08:53.291Z,97266.00
2018-09-12T20:11:23.349Z,97267.00
2018-09-12T20:13:53.074Z,97263.00
2018-09-12T20:16:22.789Z,97265.00
2018-09-12T20:18:56.338Z,97263.00
2018-09-12T20:21:38.751Z,97261.00
2018-09-12T20:24:09.510Z,97261.00
2018-09-12T20:26:55.065Z,97263.00
2018-09-12T20:29:27.272Z,97264.00
2018-09-12T20:32:07.631Z,97268.00
2018-09-12T20:34:37.612Z,97265.00
2018-09-12T20:37:07.244Z,97268.00
2018-09-12T20:39:37.069Z,97265.00
2018-09-12T20:42:12.554Z,97266.00
2018-09-12T20:44:42.331Z,97262.00
2018-09-12T20:47:15.729Z,97260.00
2018-09-12T20:49:45.442Z,97261.00
2018-09-12T20:52:26.934Z,97260.00
2018-09-12T20:54:56.695Z,97253.00
2018-09-12T20:57:26.473Z,97249.00
2018-09-12T20:59:56.299Z,97247.00
2018-09-12T21:02:35.849Z,97244.00
2018-09-12T21:05:05.594Z,97252.00
2018-09-12T21:07:35.327Z,97259.00
2018-09-12T21:10:05.414Z,97265.00
2018-09-12T21:12:35.029Z,97270.00
2018-09-12T21:15:04.723Z,97276.00
2018-09-12T21:17:34.416Z,97295.00
2018-09-12T21:20:04.054Z,97301.00
2018-09-12T21:22:33.732Z,97303.00
2018-09-12T21:25:03.626Z,97302.00
2018-09-12T21:27:33.359Z,97312.00
2018-09-12T21:30:03.066Z,97322.00
2018-09-12T21:32:33.051Z,97320.00
2018-09-12T21:35:02.814Z,97323.00
2018-09-12T21:37:40.003Z,97321.00
2018-09-12T21:40:09.803Z,97318.00
2018-09-12T21:42:39.438Z,97311.00
2018-09-12T21:45:09.170Z,97299.00
2018-09-12T21:47:51.209Z,97305.00
2018-09-12T21:50:20.962Z,97316.00
2018-09-12T21:52:50.647Z,97309.00
2018-09-12T21:55:25.899Z,97302.00
2018-09-12T21:57:55.618Z,97302.00
2018-09-12T22:00:25.445Z,97307.00
2018-09-12T22:02:56.244Z,97300.00
2018-09-12T22:05:25.863Z,97308.00
2018-09-12T22:07:55.540Z,97292.00
2018-09-12T22:10:29.462Z,97291.00
2018-09-12T22:12:59.118Z,97273.00
2018-09-12T22:15:28.851Z,97274.00
2018-09-12T22:17:58.669Z,97269.00
2018-09-12T22:20:28.321Z,97275.00
2018-09-12T22:22:57.910Z,97283.00
2018-09-12T22:25:27.627Z,97288.00
2018-09-12T22:27:57.245Z,97294.00
2018-09-12T22:30:55.479Z,97297.00
2018-09-12T22:33:25.324Z,97292.00
2018-09-12T22:35:55.522Z,97287.00
2018-09-12T22:38:25.152Z,97289.00
2018-09-12T22:40:54.896Z,97288.00
2018-09-12T22:43:42.586Z,97291.00
2018-09-12T22:49:20.486Z,97292.00
2018-09-12T22:51:50.327Z,97294.00
2018-09-12T22:54:20.025Z,97290.00
2018-09-12T22:56:49.694Z,97297.00
2018-09-12T22:59:19.460Z,97303.00
2018-09-12T23:01:49.218Z,97315.00
2018-09-12T23:04:18.911Z,97333.00
2018-09-12T23:06:48.786Z,97347.00
2018-09-12T23:09:18.432Z,97353.00
2018-09-12T23:11:48.086Z,97352.00
2018-09-12T23:14:17.743Z,97352.00
2018-09-12T23:16:47.402Z,97350.00
2018-09-12T23:19:17.054Z,97365.00
2018-09-12T23:21:46.630Z,97374.00
2018-09-12T23:24:16.319Z,97373.00
2018-09-12T23:26:46.223Z,97369.00
2018-09-12T23:29:15.961Z,97378.00
2018-09-12T23:31:45.754Z,97373.00
2018-09-12T23:34:15.710Z,97374.00
2018-09-12T23:36:45.382Z,97375.00
2018-09-12T23:39:15.321Z,97384.00
2018-09-12T23:41:45.087Z,97390.00
2018-09-12T23:44:15.770Z,97393.00
2018-09-12T23:46:45.476Z,97390.00
2018-09-12T23:49:15.343Z,97390.00
2018-09-12T23:51:44.974Z,97388.00
2018-09-12T23:54:14.738Z,97393.00
2018-09-12T23:56:44.426Z,97403.00
2018-09-12T23:59:16.207Z,97397.00
